createdAt,value
2018-10-01T00:01:21.106Z,93.60
2018-10-01T00:03:51.280Z,94.25
2018-10-01T00:06:21.472Z,94.18
2018-10-01T00:08:51.554Z,94.71
2018-10-01T00:11:21.622Z,95.03
2018-10-01T00:13:51.766Z,95.33
2018-10-01T00:16:21.842Z,95.66
2018-10-01T00:18:52.131Z,95.65
2018-10-01T00:21:27.267Z,95.86
2018-10-01T00:23:57.414Z,95.88
2018-10-01T00:26:27.541Z,95.75
2018-10-01T00:28:57.791Z,96.02
2018-10-01T00:31:27.947Z,95.81
2018-10-01T00:33:58.646Z,96.17
2018-10-01T00:36:28.799Z,96.15
2018-10-01T00:38:58.993Z,96.09
2018-10-01T00:41:29.165Z,96.02
2018-10-01T00:43:59.431Z,96.15
2018-10-01T00:46:29.699Z,96.19
2018-10-01T00:48:59.832Z,96.46
2018-10-01T00:51:30.370Z,96.53
2018-10-01T00:54:00.622Z,96.56
2018-10-01T00:56:30.825Z,97.08
2018-10-01T00:59:01.095Z,96.84
2018-10-01T01:01:31.155Z,97.47
2018-10-01T01:04:01.267Z,97.21
2018-10-01T01:06:31.428Z,97.21
2018-10-01T01:09:01.562Z,97.34
2018-10-01T01:11:31.751Z,98.35
2018-10-01T01:14:01.869Z,99.37
2018-10-01T01:16:31.947Z,99.34
2018-10-01T01:19:02.140Z,99.62
2018-10-01T01:21:32.453Z,99.30
2018-10-01T01:24:02.573Z,99.18
2018-10-01T01:26:32.786Z,99.73
2018-10-01T01:29:02.999Z,99.87
2018-10-01T01:31:33.258Z,100.00
2018-10-01T01:34:03.546Z,99.86
2018-10-01T01:36:34.451Z,99.82
2018-10-01T01:39:05.905Z,99.87
2018-10-01T01:41:36.055Z,100.00
2018-10-01T01:44:06.227Z,99.71
2018-10-01T01:46:36.770Z,99.58
2018-10-01T01:49:08.273Z,98.61
2018-10-01T01:51:40.414Z,98.23
2018-10-01T01:54:10.753Z,98.33
2018-10-01T01:56:40.882Z,99.10
2018-10-01T01:59:11.054Z,99.37
2018-10-01T02:01:41.192Z,100.00
2018-10-01T02:04:11.309Z,100.00
2018-10-01T02:06:41.503Z,100.00
2018-10-01T02:09:12.474Z,100.00
2018-10-01T02:11:42.711Z,100.00
2018-10-01T02:14:13.750Z,100.00
2018-10-01T02:16:43.790Z,100.00
2018-10-01T02:19:13.938Z,100.00
2018-10-01T02:21:44.133Z,100.00
2018-10-01T02:24:14.460Z,100.00
2018-10-01T02:26:44.597Z,100.00
2018-10-01T02:29:14.736Z,100.00
2018-10-01T02:31:44.788Z,100.00
2018-10-01T02:34:14.943Z,100.00
2018-10-01T02:36:45.033Z,100.00
2018-10-01T02:39:15.286Z,100.00
2018-10-01T02:41:45.377Z,100.00
2018-10-01T02:44:15.497Z,100.00
2018-10-01T02:46:45.598Z,100.00
2018-10-01T02:49:15.648Z,100.00
2018-10-01T02:51:50.880Z,100.00
2018-10-01T02:54:26.045Z,100.00
2018-10-01T02:56:56.104Z,100.00
2018-10-01T02:59:27.364Z,100.00
2018-10-01T03:01:57.488Z,100.00
2018-10-01T03:04:28.349Z,100.00
2018-10-01T03:06:58.452Z,100.00
2018-10-01T03:09:28.553Z,100.00
2018-10-01T03:11:58.676Z,100.00
2018-10-01T03:14:28.853Z,100.00
2018-10-01T03:16:58.927Z,100.00
2018-10-01T03:19:29.028Z,100.00
2018-10-01T03:21:59.154Z,100.00
2018-10-01T03:24:29.242Z,100.00
2018-10-01T03:26:59.380Z,100.00
2018-10-01T03:29:29.510Z,100.00
2018-10-01T03:31:59.606Z,100.00
2018-10-01T03:34:29.734Z,100.00
2018-10-01T03:36:59.871Z,100.00
2018-10-01T03:39:29.953Z,100.00
2018-10-01T03:41:59.958Z,100.00
2018-10-01T03:44:30.014Z,100.00
2018-10-01T03:47:00.036Z,99.89
2018-10-01T03:49:30.106Z,99.14
2018-10-01T03:52:00.184Z,98.92
2018-10-01T03:54:30.239Z,98.81
2018-10-01T03:57:00.349Z,98.49
2018-10-01T03:59:30.414Z,98.75
2018-10-01T04:02:01.735Z,99.01
2018-10-01T04:04:31.833Z,99.02
2018-10-01T04:07:01.887Z,98.36
2018-10-01T04:09:31.960Z,98.31
2018-10-01T04:12:02.069Z,97.85
2018-10-01T04:14:32.226Z,97.52
2018-10-01T04:17:02.314Z,97.02
2018-10-01T04:19:32.475Z,97.31
2018-10-01T04:22:02.601Z,97.63
2018-10-01T04:24:32.709Z,97.65
2018-10-01T04:27:02.836Z,97.83
2018-10-01T04:29:32.951Z,97.78
2018-10-01T04:32:03.039Z,97.22
2018-10-01T04:34:33.112Z,97.38
2018-10-01T04:37:03.149Z,96.11
2018-10-01T04:39:33.221Z,96.07
2018-10-01T04:42:03.332Z,95.42
2018-10-01T04:44:33.410Z,94.92
2018-10-01T04:47:03.462Z,95.65
2018-10-01T04:49:33.567Z,96.12
2018-10-01T04:52:03.682Z,95.90
2018-10-01T04:54:33.920Z,96.27
2018-10-01T04:57:03.963Z,95.71
2018-10-01T04:59:34.089Z,95.75
2018-10-01T05:02:04.224Z,96.52
2018-10-01T05:04:34.319Z,96.08
2018-10-01T05:07:04.459Z,95.87
2018-10-01T05:09:34.571Z,96.97
2018-10-01T05:12:04.641Z,98.18
2018-10-01T05:14:34.730Z,98.84
2018-10-01T05:17:04.922Z,99.73
2018-10-01T05:19:35.055Z,99.56
2018-10-01T05:22:05.143Z,99.79
2018-10-01T05:24:36.064Z,99.41
2018-10-01T05:27:06.237Z,99.76
2018-10-01T05:29:36.377Z,99.83
2018-10-01T05:32:06.613Z,99.94
2018-10-01T05:34:36.714Z,100.00
2018-10-01T05:37:06.880Z,100.00
2018-10-01T05:39:36.950Z,100.00
2018-10-01T05:42:07.108Z,100.00
2018-10-01T05:44:37.261Z,100.00
2018-10-01T05:47:07.414Z,100.00
2018-10-01T05:49:37.585Z,100.00
2018-10-01T05:52:07.781Z,100.00
2018-10-01T05:54:37.848Z,100.00
2018-10-01T05:57:07.558Z,99.75
2018-10-01T05:59:37.670Z,99.94
2018-10-01T06:02:07.907Z,100.00
2018-10-01T06:04:38.122Z,100.00
2018-10-01T06:07:08.350Z,100.00
2018-10-01T06:09:38.533Z,100.00
2018-10-01T06:12:08.885Z,100.00
2018-10-01T06:14:39.005Z,100.00
2018-10-01T06:17:09.165Z,100.00
2018-10-01T06:19:39.299Z,100.00
2018-10-01T06:22:09.536Z,100.00
2018-10-01T06:24:39.605Z,100.00
2018-10-01T06:27:09.999Z,100.00
2018-10-01T06:29:40.108Z,100.00
2018-10-01T06:32:10.187Z,100.00
2018-10-01T06:34:40.257Z,100.00
2018-10-01T06:37:10.361Z,100.00
2018-10-01T06:39:40.517Z,99.96
2018-10-01T06:42:10.660Z,99.59
2018-10-01T06:44:40.689Z,98.87
2018-10-01T06:47:10.810Z,98.42
2018-10-01T06:49:40.884Z,96.43
2018-10-01T06:52:10.969Z,94.24
2018-10-01T06:54:41.104Z,91.80
2018-10-01T06:57:11.175Z,92.91
2018-10-01T06:59:41.318Z,89.57
2018-10-01T07:02:11.465Z,85.17
2018-10-01T07:04:41.624Z,79.41
2018-10-01T07:07:11.709Z,78.56
2018-10-01T07:09:41.801Z,78.24
2018-10-01T07:12:11.915Z,77.43
2018-10-01T07:14:41.990Z,73.77
2018-10-01T07:17:12.063Z,71.72
2018-10-01T07:19:42.139Z,69.77
2018-10-01T07:22:12.233Z,66.22
2018-10-01T07:24:42.371Z,67.50
2018-10-01T07:27:12.445Z,71.39
2018-10-01T07:29:42.554Z,72.17
2018-10-01T07:32:12.768Z,75.45
2018-10-01T07:34:42.901Z,78.25
2018-10-01T07:37:13.014Z,81.52
2018-10-01T07:39:43.146Z,77.19
2018-10-01T07:42:13.196Z,74.05
2018-10-01T07:44:43.319Z,70.12
2018-10-01T07:47:13.428Z,64.23
2018-10-01T07:49:43.582Z,63.41
2018-10-01T07:52:13.694Z,63.30
2018-10-01T07:54:43.790Z,64.67
2018-10-01T07:57:13.947Z,63.25
2018-10-01T07:59:44.172Z,65.17
2018-10-01T08:02:14.303Z,64.82
2018-10-01T08:04:44.405Z,65.07
2018-10-01T08:07:15.388Z,63.16
2018-10-01T08:09:45.530Z,63.39
2018-10-01T08:12:15.618Z,64.19
2018-10-01T08:14:45.717Z,62.48
2018-10-01T08:17:15.849Z,59.90
2018-10-01T08:19:46.109Z,60.82
2018-10-01T08:22:16.172Z,62.38
2018-10-01T08:24:46.301Z,62.13
2018-10-01T08:27:16.413Z,60.46
2018-10-01T08:29:46.571Z,64.93
2018-10-01T08:32:16.672Z,66.95
2018-10-01T08:34:46.790Z,67.16
2018-10-01T08:37:16.942Z,67.62
2018-10-01T08:39:47.009Z,64.49
2018-10-01T08:42:17.056Z,64.58
2018-10-01T08:44:47.115Z,62.99
2018-10-01T08:47:17.216Z,65.36
2018-10-01T08:50:07.491Z,62.53
2018-10-01T08:53:41.328Z,65.10
2018-10-01T08:56:11.539Z,60.14
2018-10-01T08:58:41.496Z,60.03
2018-10-01T09:01:11.652Z,61.64
2018-10-01T09:03:41.665Z,58.01
2018-10-01T09:06:11.789Z,57.20
2018-10-01T09:08:41.839Z,56.53
2018-10-01T09:11:11.975Z,58.12
2018-10-01T09:13:42.008Z,56.72
2018-10-01T09:16:12.171Z,59.58
2018-10-01T09:18:42.221Z,58.03
2018-10-01T09:21:12.366Z,60.89
2018-10-01T09:23:42.362Z,62.50
2018-10-01T09:26:12.440Z,63.29
2018-10-01T09:28:42.524Z,63.01
2018-10-01T09:31:12.617Z,63.89
2018-10-01T09:33:42.679Z,67.61
2018-10-01T09:36:12.784Z,68.75
2018-10-01T09:38:42.912Z,71.75
2018-10-01T09:41:13.058Z,74.32
2018-10-01T09:43:43.150Z,76.30
2018-10-01T09:46:13.292Z,74.57
2018-10-01T09:48:43.379Z,75.48
2018-10-01T09:51:13.528Z,76.62
2018-10-01T09:53:43.563Z,75.44
2018-10-01T09:56:13.691Z,71.46
2018-10-01T09:58:43.761Z,71.82
2018-10-01T10:01:15.485Z,73.86
2018-10-01T10:03:45.636Z,71.26
2018-10-01T10:06:15.669Z,72.57
2018-10-01T10:08:45.691Z,70.41
2018-10-01T10:11:15.855Z,69.98
2018-10-01T10:13:45.978Z,70.42
2018-10-01T10:16:16.142Z,67.56
2018-10-01T10:18:46.227Z,66.15
2018-10-01T10:21:16.436Z,66.23
2018-10-01T10:23:46.484Z,66.96
2018-10-01T10:26:16.652Z,68.86
2018-10-01T10:28:46.693Z,68.90
2018-10-01T10:31:16.770Z,68.01
2018-10-01T10:33:46.840Z,67.86
2018-10-01T10:36:16.945Z,66.91
2018-10-01T10:38:47.122Z,65.13
2018-10-01T10:41:17.194Z,67.80
2018-10-01T10:43:47.332Z,64.59
2018-10-01T10:46:17.471Z,61.01
2018-10-01T10:48:47.596Z,60.42
2018-10-01T10:51:17.652Z,75.64
2018-10-01T10:53:47.761Z,88.06
2018-10-01T10:56:17.850Z,93.06
2018-10-01T10:58:47.910Z,99.62
2018-10-01T11:01:18.054Z,100.00
2018-10-01T11:03:48.109Z,100.00
2018-10-01T11:06:18.223Z,100.00
2018-10-01T11:08:48.295Z,100.00
2018-10-01T11:11:18.362Z,100.00
2018-10-01T11:13:48.504Z,100.00
2018-10-01T11:16:18.631Z,100.00
2018-10-01T11:18:48.814Z,100.00
2018-10-01T11:21:18.976Z,100.00
2018-10-01T11:23:49.047Z,100.00
2018-10-01T11:26:19.080Z,100.00
2018-10-01T11:28:49.228Z,100.00
2018-10-01T11:31:19.248Z,100.00
2018-10-01T11:33:49.265Z,99.27
2018-10-01T11:36:19.356Z,100.00
2018-10-01T11:38:49.419Z,100.00
2018-10-01T11:41:19.575Z,100.00
2018-10-01T11:43:49.658Z,99.67
2018-10-01T11:46:19.776Z,98.79
2018-10-01T11:48:49.806Z,97.38
2018-10-01T11:51:19.934Z,97.04
2018-10-01T11:53:49.888Z,97.06
2018-10-01T11:56:20.038Z,94.80
2018-10-01T11:58:50.133Z,99.30
2018-10-01T12:01:20.265Z,96.64
2018-10-01T12:03:50.517Z,98.74
2018-10-01T12:06:20.666Z,94.31
2018-10-01T12:08:50.939Z,95.79
2018-10-01T12:11:21.175Z,96.54
2018-10-01T12:13:51.271Z,89.71
2018-10-01T12:16:21.405Z,86.25
2018-10-01T12:18:51.544Z,87.20
2018-10-01T12:21:21.716Z,87.43
2018-10-01T12:23:51.738Z,88.46
2018-10-01T12:26:21.870Z,90.17
2018-10-01T12:28:51.941Z,90.38
2018-10-01T12:31:22.100Z,87.81
2018-10-01T12:33:52.197Z,88.69
2018-10-01T12:36:23.199Z,81.52
2018-10-01T12:38:53.483Z,85.18
2018-10-01T12:41:23.612Z,85.21
2018-10-01T12:43:53.695Z,82.00
2018-10-01T12:46:23.817Z,82.96
2018-10-01T12:48:53.894Z,83.06
2018-10-01T12:51:24.075Z,83.41
2018-10-01T12:53:54.208Z,78.76
2018-10-01T12:56:24.370Z,80.67
2018-10-01T12:58:54.419Z,79.69
2018-10-01T13:01:24.507Z,71.87
2018-10-01T13:03:54.624Z,71.49
2018-10-01T13:06:24.814Z,67.75
2018-10-01T13:08:54.873Z,73.01
2018-10-01T13:11:25.878Z,70.06
2018-10-01T13:13:56.094Z,70.14
2018-10-01T13:16:26.163Z,65.30
2018-10-01T13:18:56.358Z,70.75
2018-10-01T13:21:26.489Z,70.98
2018-10-01T13:23:56.616Z,72.75
2018-10-01T13:26:27.189Z,66.83
2018-10-01T13:28:57.655Z,69.61
2018-10-01T13:31:27.764Z,69.27
2018-10-01T13:33:58.934Z,69.65
2018-10-01T13:36:29.068Z,70.09
2018-10-01T13:38:59.196Z,67.92
2018-10-01T13:41:29.300Z,67.23
2018-10-01T13:43:59.317Z,70.33
2018-10-01T13:46:29.420Z,69.39
2018-10-01T13:48:59.488Z,68.31
2018-10-01T13:51:29.555Z,70.58
2018-10-01T13:53:59.680Z,64.87
2018-10-01T13:56:29.788Z,67.31
2018-10-01T13:58:59.994Z,65.75
2018-10-01T14:01:30.320Z,63.65
2018-10-01T14:04:00.526Z,64.30
2018-10-01T14:06:30.684Z,66.10
2018-10-01T14:09:00.762Z,70.03
2018-10-01T14:11:31.002Z,67.07
2018-10-01T14:14:01.229Z,71.18
2018-10-01T14:16:31.321Z,61.63
2018-10-01T14:19:01.447Z,62.26
2018-10-01T14:21:31.648Z,63.32
2018-10-01T14:24:01.684Z,63.09
2018-10-01T14:26:31.821Z,63.19
2018-10-01T14:29:01.872Z,63.61
2018-10-01T14:31:32.003Z,64.69
2018-10-01T14:34:02.046Z,67.30
2018-10-01T14:36:32.185Z,67.44
2018-10-01T14:39:02.339Z,66.56
2018-10-01T14:41:32.492Z,67.74
2018-10-01T14:44:02.541Z,68.54
2018-10-01T14:46:32.640Z,66.51
2018-10-01T14:49:02.716Z,65.23
2018-10-01T14:51:32.821Z,65.62
2018-10-01T14:54:03.003Z,65.29
2018-10-01T14:56:33.083Z,67.48
2018-10-01T14:59:03.193Z,69.95
2018-10-01T15:01:33.339Z,71.42
2018-10-01T15:04:03.534Z,71.36
2018-10-01T15:06:34.106Z,71.81
2018-10-01T15:09:04.564Z,77.40
2018-10-01T15:11:34.681Z,80.73
2018-10-01T15:14:04.835Z,84.49
2018-10-01T15:16:35.235Z,84.31
2018-10-01T15:19:05.679Z,85.49
2018-10-01T15:21:35.809Z,83.56
2018-10-01T15:24:05.981Z,87.07
2018-10-01T15:26:36.047Z,88.73
2018-10-01T15:29:06.171Z,88.29
2018-10-01T15:31:36.304Z,87.10
2018-10-01T15:34:06.456Z,87.75
2018-10-01T15:36:36.552Z,87.88
2018-10-01T15:39:09.309Z,87.62
2018-10-01T15:41:39.522Z,87.50
2018-10-01T15:44:09.612Z,87.33
2018-10-01T15:46:39.746Z,87.94
2018-10-01T15:49:09.801Z,88.25
2018-10-01T15:51:39.917Z,86.87
2018-10-01T15:54:10.090Z,87.07
2018-10-01T15:56:40.157Z,87.35
2018-10-01T15:59:10.275Z,88.49
2018-10-01T16:01:40.386Z,89.33
2018-10-01T16:04:10.485Z,88.96
2018-10-01T16:06:40.625Z,87.97
2018-10-01T16:09:12.269Z,87.83
2018-10-01T16:11:42.422Z,87.39
2018-10-01T16:14:13.485Z,84.77
2018-10-01T16:16:43.619Z,84.17
2018-10-01T16:19:13.900Z,82.36
2018-10-01T16:21:43.995Z,81.19
2018-10-01T16:24:14.947Z,83.40
2018-10-01T16:26:45.872Z,82.83
2018-10-01T16:29:16.297Z,85.24
2018-10-01T16:31:46.406Z,84.37
2018-10-01T16:34:16.503Z,86.00
2018-10-01T16:36:46.820Z,85.52
2018-10-01T16:39:19.870Z,85.73
2018-10-01T16:41:49.910Z,86.11
2018-10-01T16:44:20.132Z,87.69
2018-10-01T16:46:50.303Z,93.13
2018-10-01T16:49:20.474Z,96.24
2018-10-01T16:51:50.650Z,98.41
2018-10-01T16:54:20.755Z,100.00
2018-10-01T16:56:50.889Z,100.00
2018-10-01T16:59:21.058Z,100.00
2018-10-01T17:01:51.268Z,100.00
2018-10-01T17:04:21.397Z,100.00
2018-10-01T17:06:51.600Z,100.00
2018-10-01T17:09:21.725Z,100.00
2018-10-01T17:11:51.946Z,100.00
2018-10-01T17:14:22.108Z,100.00
2018-10-01T17:16:52.223Z,100.00
2018-10-01T17:19:22.339Z,100.00
2018-10-01T17:21:52.510Z,100.00
2018-10-01T17:24:22.623Z,100.00
2018-10-01T17:26:52.727Z,100.00
2018-10-01T17:29:23.619Z,100.00
2018-10-01T17:31:53.745Z,100.00
2018-10-01T17:34:24.087Z,100.00
2018-10-01T17:36:54.211Z,100.00
2018-10-01T17:39:24.372Z,100.00
2018-10-01T17:41:54.497Z,100.00
2018-10-01T17:44:24.662Z,100.00
2018-10-01T17:46:54.782Z,100.00
2018-10-01T17:49:25.037Z,100.00
2018-10-01T17:51:55.241Z,100.00
2018-10-01T17:54:25.921Z,100.00
2018-10-01T17:56:56.597Z,100.00
2018-10-01T17:59:26.828Z,100.00
2018-10-01T18:01:57.882Z,100.00
2018-10-01T18:04:27.981Z,100.00
2018-10-01T18:06:58.105Z,100.00
2018-10-01T18:09:28.243Z,100.00
2018-10-01T18:11:58.480Z,100.00
2018-10-01T18:14:28.606Z,100.00
2018-10-01T18:16:58.756Z,100.00
2018-10-01T18:19:28.932Z,100.00
2018-10-01T18:21:59.450Z,100.00
2018-10-01T18:24:29.416Z,100.00
2018-10-01T18:26:59.501Z,100.00
2018-10-01T18:29:29.638Z,100.00
2018-10-01T18:31:59.879Z,100.00
2018-10-01T18:34:29.892Z,100.00
2018-10-01T18:37:00.019Z,100.00
2018-10-01T18:39:32.159Z,100.00
2018-10-01T18:42:02.412Z,100.00
2018-10-01T18:44:32.398Z,100.00
2018-10-01T18:47:02.570Z,100.00
2018-10-01T18:49:32.709Z,100.00
2018-10-01T18:52:02.853Z,100.00
2018-10-01T18:54:32.948Z,100.00
2018-10-01T18:57:03.491Z,100.00
2018-10-01T18:59:33.634Z,100.00
2018-10-01T19:02:03.866Z,100.00
2018-10-01T19:04:33.999Z,100.00
2018-10-01T19:07:04.246Z,100.00
2018-10-01T19:09:34.367Z,100.00
2018-10-01T19:12:04.621Z,100.00
2018-10-01T19:14:34.683Z,100.00
2018-10-01T19:17:04.915Z,100.00
2018-10-01T19:19:34.937Z,100.00
2018-10-01T19:22:06.293Z,100.00
2018-10-01T19:24:36.444Z,100.00
2018-10-01T19:27:06.632Z,100.00
2018-10-01T19:29:36.709Z,100.00
2018-10-01T19:32:06.924Z,100.00
2018-10-01T19:34:37.081Z,100.00
2018-10-01T19:37:07.626Z,100.00
2018-10-01T19:39:37.897Z,100.00
2018-10-01T19:42:08.063Z,100.00
2018-10-01T19:44:38.155Z,100.00
2018-10-01T19:47:08.294Z,100.00
2018-10-01T19:49:38.537Z,100.00
2018-10-01T19:52:08.708Z,100.00
2018-10-01T19:54:38.861Z,100.00
2018-10-01T19:57:09.021Z,100.00
2018-10-01T19:59:39.144Z,100.00
2018-10-01T20:02:09.405Z,100.00
2018-10-01T20:04:39.629Z,100.00
2018-10-01T20:07:10.220Z,100.00
2018-10-01T20:09:43.781Z,100.00
2018-10-01T20:12:15.971Z,100.00
2018-10-01T20:14:46.115Z,100.00
2018-10-01T20:17:16.250Z,100.00
2018-10-01T20:19:46.425Z,100.00
2018-10-01T20:22:16.580Z,100.00
2018-10-01T20:24:46.743Z,100.00
2018-10-01T20:27:16.900Z,100.00
2018-10-01T20:29:47.171Z,100.00
2018-10-01T20:32:17.328Z,100.00
2018-10-01T20:34:47.619Z,100.00
2018-10-01T20:37:17.706Z,100.00
2018-10-01T20:39:47.873Z,100.00
2018-10-01T20:42:18.074Z,100.00
2018-10-01T20:44:48.155Z,100.00
2018-10-01T20:47:18.368Z,100.00
2018-10-01T20:49:48.618Z,100.00
2018-10-01T20:52:18.715Z,100.00
2018-10-01T20:54:50.237Z,100.00
2018-10-01T20:57:20.400Z,100.00
2018-10-01T20:59:50.849Z,100.00
2018-10-01T21:02:21.179Z,100.00
2018-10-01T21:04:51.230Z,100.00
2018-10-01T21:07:21.380Z,100.00
2018-10-01T21:09:52.580Z,100.00
2018-10-01T21:12:23.453Z,100.00
2018-10-01T21:14:53.544Z,100.00
2018-10-01T21:17:24.767Z,100.00
2018-10-01T21:19:54.902Z,100.00
2018-10-01T21:22:25.220Z,100.00
2018-10-01T21:24:56.179Z,100.00
2018-10-01T21:27:26.298Z,100.00
2018-10-01T21:29:56.419Z,100.00
2018-10-01T21:32:26.573Z,100.00
2018-10-01T21:34:56.714Z,100.00
2018-10-01T21:37:26.770Z,100.00
2018-10-01T21:40:09.132Z,100.00
2018-10-01T21:42:39.238Z,100.00
2018-10-01T21:45:10.157Z,100.00
2018-10-01T21:47:40.254Z,100.00
2018-10-01T21:50:10.576Z,100.00
2018-10-01T21:52:40.716Z,100.00
2018-10-01T21:55:10.841Z,100.00
2018-10-01T21:57:40.989Z,100.00
2018-10-01T22:00:12.386Z,100.00
2018-10-01T22:02:42.509Z,100.00
2018-10-01T22:05:12.593Z,100.00
2018-10-01T22:07:42.734Z,100.00
2018-10-01T22:10:12.780Z,100.00
2018-10-01T22:12:42.984Z,100.00
2018-10-01T22:15:13.077Z,100.00
2018-10-01T22:17:43.159Z,100.00
2018-10-01T22:20:13.144Z,100.00
2018-10-01T22:22:43.238Z,100.00
2018-10-01T22:25:13.361Z,100.00
2018-10-01T22:27:43.456Z,100.00
2018-10-01T22:30:13.513Z,100.00
2018-10-01T22:32:43.557Z,100.00
2018-10-01T22:35:13.739Z,100.00
2018-10-01T22:37:43.889Z,100.00
2018-10-01T22:40:13.973Z,100.00
2018-10-01T22:42:44.278Z,100.00
2018-10-01T22:45:14.376Z,100.00
2018-10-01T22:47:44.476Z,100.00
2018-10-01T22:50:14.593Z,100.00
2018-10-01T22:52:44.775Z,100.00
2018-10-01T22:55:14.921Z,100.00
2018-10-01T22:57:45.081Z,100.00
2018-10-01T23:00:15.302Z,100.00
2018-10-01T23:02:45.466Z,100.00
2018-10-01T23:05:15.541Z,100.00
2018-10-01T23:07:45.649Z,100.00
2018-10-01T23:10:15.671Z,100.00
2018-10-01T23:12:45.739Z,100.00
2018-10-01T23:15:16.089Z,100.00
2018-10-01T23:17:46.161Z,100.00
2018-10-01T23:20:16.233Z,100.00
2018-10-01T23:22:46.341Z,100.00
2018-10-01T23:25:16.433Z,100.00
2018-10-01T23:27:46.527Z,100.00
2018-10-01T23:30:16.581Z,100.00
2018-10-01T23:32:46.672Z,100.00
2018-10-01T23:35:16.830Z,100.00
2018-10-01T23:37:46.936Z,100.00
2018-10-01T23:40:16.999Z,100.00
2018-10-01T23:42:47.134Z,100.00
2018-10-01T23:45:17.413Z,100.00
2018-10-01T23:47:47.492Z,100.00
2018-10-01T23:50:17.553Z,100.00
2018-10-01T23:52:47.722Z,100.00
2018-10-01T23:55:17.789Z,100.00
2018-10-01T23:57:48.466Z,100.00
